KUNU/UNU METAR and TAF weather

Enter ICAO airport designator
Station Type Date Time Source
KUNU METAR 2020/01/26 19:15 UTC NOAA

KUNU 261915Z AUTO 25005KT 7SM OVC007 00/M02 A2987 RMK AO2 T10051018


Station Type Date Time Source
KUNU Decoded METAR 2020/01/26 19:15 UTC NOAA

Juneau, Dodge County Airport, WI, United States (KUNU) 43-25-36N 088-42-12W
Jan 26, 2020 - 02:15 PM EST / 2020.01.26 1915 UTC
Wind: from the WSW (250 degrees) at 6 MPH (5 KT):0
Visibility: 7 mile(s):0
Sky conditions: overcast
Temperature: 31.1 F (-0.5 C)
Windchill: 24 F (-4 C):1
Dew Point: 28.8 F (-1.8 C)
Relative Humidity: 90%
Pressure (altimeter): 29.87 in. Hg (1011 hPa)
ob: KUNU 261915Z AUTO 25005KT 7SM OVC007 00/M02 A2987 RMK AO2 T10051018
cycle: 19

Station Type Date Time Source
KUNU TAF UTC NOAA

Error!

Example: see airport list